Time;durP1;ratioP1;P1;durP2;ratioP2;P2;SDS_P1;SDS_P2;PMS_P1;PMS_P2;Temp;Humidity;BMP_temperature;BMP_pressure;BME280_temperature;BME280_humidity;BME280_pressure;Samples;Min_cycle;Max_cycle;Signal;HPM_P1;HPM_P2
2021/06/07 00:03:42;;;;;;;32.45;23.02;;;15.30;99.90;;;;;;12383060;28;20042;-40
2021/06/07 00:09:44;;;;;;;28.83;23.10;;;15.30;99.90;;;;;;12384269;28;20069;-36
2021/06/07 00:15:47;;;;;;;29.95;21.08;;;15.30;99.90;;;;;;12380641;28;20045;-35
2021/06/07 00:21:50;;;;;;;31.67;23.95;;;15.30;99.90;;;;;;12391951;28;20049;-37
2021/06/07 00:27:52;;;;;;;29.73;22.70;;;15.20;99.90;;;;;;12385329;28;20080;-35
2021/06/07 00:33:54;;;;;;;30.73;23.50;;;15.20;99.90;;;;;;12377836;28;20054;-36
2021/06/07 00:39:55;;;;;;;28.17;22.00;;;15.20;99.90;;;;;;12380145;28;20133;-38
2021/06/07 00:45:58;;;;;;;31.25;24.08;;;15.10;99.90;;;;;;12384220;28;20563;-37
2021/06/07 00:52:00;;;;;;;28.67;23.00;;;15.10;99.90;;;;;;12382918;28;20399;-37
2021/06/07 00:58:03;;;;;;;26.98;22.15;;;15.10;99.90;;;;;;12383008;28;20153;-36
2021/06/07 01:04:05;;;;;;;33.30;22.90;;;15.00;99.90;;;;;;12379199;28;20061;-35
2021/06/07 01:10:08;;;;;;;27.15;23.13;;;15.00;99.90;;;;;;12378864;28;20068;-36
2021/06/07 01:16:10;;;;;;;30.92;22.48;;;14.90;99.90;;;;;;12379904;28;20054;-36
2021/06/07 01:22:12;;;;;;;32.72;23.60;;;14.80;99.90;;;;;;12373823;28;20042;-35
2021/06/07 01:28:18;;;;;;;27.40;22.73;;;14.80;99.90;;;;;;12378518;28;20046;-37
2021/06/07 01:34:20;;;;;;;27.08;22.80;;;14.80;99.90;;;;;;12377893;28;20148;-36
2021/06/07 01:40:29;;;;;;;29.05;22.95;;;14.80;99.90;;;;;;12370785;28;20058;-37
2021/06/07 01:46:30;;;;;;;30.27;22.92;;;14.70;99.90;;;;;;12383813;28;20058;-36
2021/06/07 01:52:33;;;;;;;24.25;21.02;;;14.70;99.90;;;;;;12383724;28;20049;-37
2021/06/07 01:58:36;;;;;;;27.52;22.50;;;14.70;99.90;;;;;;12383458;28;20882;-35
2021/06/07 02:04:38;;;;;;;26.30;21.38;;;14.70;99.90;;;;;;12388325;28;20181;-35
2021/06/07 02:10:43;;;;;;;27.50;21.65;;;14.70;99.90;;;;;;12380608;28;20502;-36
2021/06/07 02:16:45;;;;;;;27.27;21.35;;;14.60;99.90;;;;;;12385281;28;20051;-36
2021/06/07 02:22:47;;;;;;;22.42;20.02;;;14.60;99.90;;;;;;12382334;28;20054;-36
2021/06/07 02:28:56;;;;;;;25.90;19.88;;;14.50;99.90;;;;;;12386529;28;20058;-36
2021/06/07 02:34:58;;;;;;;27.50;20.08;;;14.50;99.90;;;;;;12394452;28;20103;-38
2021/06/07 02:41:00;;;;;;;26.45;19.85;;;14.40;99.90;;;;;;12385444;28;20325;-35
2021/06/07 02:47:02;;;;;;;28.80;20.75;;;14.30;99.90;;;;;;12394953;28;20042;-35
2021/06/07 02:53:05;;;;;;;27.48;19.85;;;14.40;99.90;;;;;;12387206;28;20514;-36
2021/06/07 02:59:07;;;;;;;24.15;19.38;;;14.30;99.90;;;;;;12388504;28;20067;-35
2021/06/07 03:05:09;;;;;;;27.08;20.23;;;14.30;99.90;;;;;;12384909;28;20108;-39
2021/06/07 03:11:12;;;;;;;23.05;19.30;;;14.40;99.90;;;;;;12382727;28;20076;-36
2021/06/07 03:17:14;;;;;;;26.02;19.65;;;14.40;99.90;;;;;;12390302;28;20064;-37
2021/06/07 03:23:19;;;;;;;23.73;18.80;;;14.40;99.90;;;;;;12394163;28;20132;-35
2021/06/07 03:29:21;;;;;;;24.58;19.17;;;14.40;99.90;;;;;;12390753;28;20230;-36
2021/06/07 03:35:26;;;;;;;26.85;20.08;;;14.40;99.90;;;;;;12395706;28;20052;-36
2021/06/07 03:41:28;;;;;;;26.70;20.63;;;14.30;99.90;;;;;;12384894;28;20050;-37
2021/06/07 03:47:30;;;;;;;26.38;20.17;;;14.30;99.90;;;;;;12392351;28;20072;-37
2021/06/07 03:53:31;;;;;;;23.98;20.00;;;14.40;99.90;;;;;;12382326;28;20486;-36
2021/06/07 03:59:33;;;;;;;26.83;20.33;;;14.40;99.90;;;;;;12383362;28;21244;-38
2021/06/07 04:05:36;;;;;;;28.20;20.05;;;14.40;99.90;;;;;;12392218;28;20050;-36
2021/06/07 04:11:38;;;;;;;23.52;20.88;;;14.40;99.90;;;;;;12381958;28;20120;-38
2021/06/07 04:17:40;;;;;;;26.63;20.33;;;14.50;99.90;;;;;;12387755;28;20049;-36
2021/06/07 04:23:42;;;;;;;22.85;19.88;;;14.40;99.90;;;;;;12387967;28;20053;-36
2021/06/07 04:29:45;;;;;;;26.20;20.70;;;14.50;99.90;;;;;;12389036;28;20057;-36
2021/06/07 04:35:48;;;;;;;26.77;20.13;;;14.50;99.90;;;;;;12382502;28;20050;-36
2021/06/07 04:41:49;;;;;;;25.40;20.45;;;14.50;99.90;;;;;;12383545;28;20139;-35
2021/06/07 04:47:52;;;;;;;25.08;20.20;;;14.50;99.90;;;;;;12385116;28;20076;-35
2021/06/07 04:53:54;;;;;;;29.52;19.98;;;14.70;99.90;;;;;;12384308;28;20170;-36
2021/06/07 04:59:56;;;;;;;22.05;18.85;;;14.70;99.90;;;;;;12388519;28;20107;-36
2021/06/07 05:05:59;;;;;;;27.42;21.08;;;14.80;99.90;;;;;;12388593;28;20057;-38
2021/06/07 05:12:05;;;;;;;27.13;18.93;;;14.80;99.90;;;;;;12384865;28;20046;-35
2021/06/07 05:18:07;;;;;;;29.80;20.10;;;14.80;99.90;;;;;;12386360;28;20730;-35
2021/06/07 05:24:09;;;;;;;24.90;21.23;;;14.80;99.90;;;;;;12382499;28;20061;-39
2021/06/07 05:30:11;;;;;;;24.48;20.10;;;14.70;99.90;;;;;;12379786;28;20097;-38
2021/06/07 05:36:13;;;;;;;28.25;20.52;;;14.90;99.90;;;;;;12386788;28;20153;-36
2021/06/07 05:42:16;;;;;;;22.48;19.20;;;14.90;99.90;;;;;;12383213;28;20050;-38
2021/06/07 05:48:18;;;;;;;25.95;18.95;;;15.00;99.90;;;;;;12386564;28;20054;-36
2021/06/07 05:54:24;;;;;;;23.20;18.52;;;15.00;99.90;;;;;;12386024;28;20062;-36
2021/06/07 06:00:29;;;;;;;22.15;18.25;;;14.90;99.90;;;;;;12386845;28;20173;-37
2021/06/07 06:06:32;;;;;;;19.92;16.42;;;15.20;99.90;;;;;;12379814;28;20050;-36
2021/06/07 06:12:33;;;;;;;20.60;16.27;;;15.30;99.90;;;;;;12378982;28;20129;-37
2021/06/07 06:18:37;;;;;;;17.92;15.80;;;15.30;99.90;;;;;;12388193;28;20852;-38
2021/06/07 06:24:40;;;;;;;21.70;15.80;;;15.50;99.90;;;;;;12381915;28;20066;-35
2021/06/07 06:30:42;;;;;;;21.00;16.80;;;15.60;99.90;;;;;;12383439;28;20050;-37
2021/06/07 06:36:44;;;;;;;17.40;14.75;;;15.90;99.90;;;;;;12384050;28;20047;-36
2021/06/07 06:42:46;;;;;;;21.80;15.02;;;15.80;99.90;;;;;;12387657;28;20136;-36
2021/06/07 06:48:48;;;;;;;19.58;15.93;;;15.90;99.90;;;;;;12378816;28;20062;-35
2021/06/07 06:54:53;;;;;;;17.48;14.48;;;15.50;99.90;;;;;;12375750;28;20054;-36
2021/06/07 07:01:02;;;;;;;15.82;14.18;;;15.70;99.90;;;;;;12383883;28;20049;-36
2021/06/07 07:07:06;;;;;;;18.48;13.63;;;15.70;99.90;;;;;;12390551;28;21949;-37
2021/06/07 07:13:08;;;;;;;14.95;12.50;;;15.80;99.90;;;;;;12393545;28;20054;-37
2021/06/07 07:19:10;;;;;;;14.88;12.73;;;16.10;99.90;;;;;;12391650;28;20050;-36
2021/06/07 07:25:20;;;;;;;14.60;11.88;;;16.10;99.90;;;;;;12381817;28;20046;-36
2021/06/07 07:31:22;;;;;;;14.07;11.13;;;16.30;99.90;;;;;;12395339;28;20141;-39
2021/06/07 07:37:24;;;;;;;15.60;12.88;;;16.20;99.90;;;;;;12390894;28;20046;-36
2021/06/07 07:43:29;;;;;;;16.60;12.32;;;16.40;99.90;;;;;;12381043;28;20157;-37
2021/06/07 07:49:31;;;;;;;15.20;13.18;;;16.60;99.90;;;;;;12387373;28;20157;-36
2021/06/07 07:55:37;;;;;;;15.70;13.40;;;16.60;99.90;;;;;;12386999;28;20080;-37
2021/06/07 08:01:41;;;;;;;13.98;11.85;;;16.60;99.90;;;;;;12386851;28;20108;-39
2021/06/07 08:07:43;;;;;;;;;;;16.70;99.90;;;;;;12388751;28;20084;-36
2021/06/07 08:13:45;;;;;;;19.67;14.25;;;16.70;99.90;;;;;;12389831;28;20412;-36
2021/06/07 08:19:50;;;;;;;17.15;13.82;;;16.50;99.90;;;;;;12387105;28;20112;-41
2021/06/07 08:25:55;;;;;;;17.35;13.35;;;16.60;99.90;;;;;;12389247;28;20137;-37
2021/06/07 08:31:57;;;;;;;17.42;15.05;;;16.70;99.90;;;;;;12392670;28;20050;-37
2021/06/07 08:37:59;;;;;;;16.42;12.80;;;16.60;99.90;;;;;;12387998;28;20061;-36
2021/06/07 08:44:01;;;;;;;17.88;13.82;;;16.80;99.90;;;;;;12381545;28;20054;-37
2021/06/07 08:50:04;;;;;;;19.45;14.57;;;16.90;99.90;;;;;;12388756;28;20494;-36
2021/06/07 08:56:06;;;;;;;18.20;13.63;;;16.60;99.90;;;;;;12377504;28;20218;-37
2021/06/07 09:02:11;;;;;;;19.17;14.15;;;16.70;99.90;;;;;;12384675;28;20172;-37
2021/06/07 09:08:16;;;;;;;19.02;13.80;;;16.80;99.90;;;;;;12385707;28;20576;-36
2021/06/07 09:14:23;;;;;;;20.25;15.50;;;16.90;99.90;;;;;;12400614;28;20688;-39
2021/06/07 09:20:27;;;;;;;16.40;12.60;;;16.90;99.90;;;;;;12400713;28;20119;-36
2021/06/07 09:26:39;;;;;;;17.77;14.13;;;17.20;99.90;;;;;;12385951;28;20148;-38
2021/06/07 09:32:41;;;;;;;15.82;12.30;;;17.30;99.90;;;;;;12383427;28;20048;-36
2021/06/07 09:38:58;;;;;;;20.20;13.85;;;17.20;99.90;;;;;;12383111;28;20124;-36
2021/06/07 09:45:04;;;;;;;22.25;16.23;;;17.10;99.90;;;;;;12378986;28;20073;-36
2021/06/07 09:51:06;;;;;;;18.75;13.27;;;17.00;99.90;;;;;;12383513;28;20050;-36
2021/06/07 09:57:08;;;;;;;24.15;17.83;;;17.00;99.90;;;;;;12375895;28;20065;-37
2021/06/07 10:03:39;;;;;;;24.85;15.32;;;17.10;99.90;;;;;;12379342;28;20512;-36
2021/06/07 10:10:08;;;;;;;27.67;18.38;;;17.10;99.90;;;;;;12384442;28;20074;-37
2021/06/07 10:16:14;;;;;;;35.17;19.95;;;16.90;99.90;;;;;;12430803;28;20080;-37
2021/06/07 10:22:17;;;;;;;23.90;16.65;;;16.90;99.90;;;;;;12433425;28;20073;-36
2021/06/07 10:28:44;;;;;;;22.42;15.27;;;17.00;99.90;;;;;;12431850;28;20064;-38
2021/06/07 10:34:55;;;;;;;27.92;15.50;;;17.20;99.90;;;;;;12430976;28;20064;-36
2021/06/07 10:41:26;;;;;;;23.08;16.00;;;17.40;99.90;;;;;;12432434;28;20049;-37
2021/06/07 10:47:40;;;;;;;16.58;12.20;;;17.40;99.90;;;;;;12441301;28;20050;-36
2021/06/07 10:53:42;;;;;;;22.42;15.05;;;17.70;99.90;;;;;;12438867;28;20144;-36
2021/06/07 10:59:47;;;;;;;16.88;11.63;;;18.00;99.90;;;;;;12441028;28;20132;-36
2021/06/07 11:05:55;;;;;;;15.95;11.23;;;18.30;99.90;;;;;;12444311;28;20057;-36
2021/06/07 11:11:57;;;;;;;19.08;11.55;;;18.40;99.90;;;;;;12443245;28;20052;-36
2021/06/07 11:18:20;;;;;;;12.98;9.52;;;18.50;99.90;;;;;;12445676;28;20084;-37
2021/06/07 11:24:29;;;;;;;11.98;8.82;;;18.60;99.90;;;;;;12448308;28;20062;-37
2021/06/07 11:30:50;;;;;;;11.85;8.48;;;18.70;99.90;;;;;;12442595;28;20103;-38
2021/06/07 11:36:52;;;;;;;9.88;7.47;;;18.90;99.90;;;;;;12445617;28;20142;-36
2021/06/07 11:43:09;;;;;;;7.10;5.53;;;19.10;99.90;;;;;;12439523;28;20094;-36
2021/06/07 11:49:18;;;;;;;10.68;6.68;;;19.30;99.90;;;;;;12438457;28;20126;-36
2021/06/07 11:55:27;;;;;;;9.23;6.47;;;19.20;99.90;;;;;;12434028;28;20910;-35
2021/06/07 12:01:33;;;;;;;8.73;6.18;;;19.40;99.90;;;;;;12439491;28;20053;-37
2021/06/07 12:07:37;;;;;;;11.02;7.60;;;19.50;99.90;;;;;;12435632;28;20049;-36
2021/06/07 12:13:42;;;;;;;7.88;5.97;;;20.00;99.90;;;;;;12436499;28;20038;-36
2021/06/07 12:19:55;;;;;;;8.45;6.47;;;20.30;99.90;;;;;;12431891;28;20406;-36
2021/06/07 12:32:18;;;;;;;11.77;7.90;;;20.70;99.90;;;;;;12439176;28;20046;-36
2021/06/07 12:38:21;;;;;;;8.23;5.95;;;20.10;99.90;;;;;;12436084;28;20053;-35
2021/06/07 12:44:26;;;;;;;9.13;6.80;;;19.90;99.90;;;;;;12444165;28;20084;-36
2021/06/07 12:50:28;;;;;;;11.65;8.25;;;19.50;99.90;;;;;;12438962;28;20132;-36
2021/06/07 12:56:30;;;;;;;9.55;8.52;;;19.10;99.90;;;;;;12431828;28;20059;-36
2021/06/07 13:02:36;;;;;;;8.80;7.45;;;18.90;99.90;;;;;;12432980;28;20069;-36
2021/06/07 13:08:50;;;;;;;12.68;8.70;;;18.80;99.90;;;;;;12432783;28;20141;-37
2021/06/07 13:14:53;;;;;;;;;;;18.60;99.90;;;;;;12433829;28;20038;-35
2021/06/07 13:21:06;;;;;;;8.55;6.38;;;18.70;99.90;;;;;;12438936;28;19929;-35
2021/06/07 13:27:25;;;;;;;8.50;7.13;;;18.70;99.90;;;;;;12438354;28;20059;-38
2021/06/07 13:33:28;;;;;;;8.77;7.00;;;18.80;99.90;;;;;;12436063;28;20136;-37
2021/06/07 13:39:30;;;;;;;9.50;7.45;;;18.80;99.90;;;;;;12434058;28;20429;-36
2021/06/07 13:45:34;;;;;;;9.48;6.82;;;18.80;99.90;;;;;;12435701;28;20064;-36
2021/06/07 13:51:37;;;;;;;8.63;6.55;;;18.80;99.90;;;;;;12432333;28;20063;-36
2021/06/07 13:58:01;;;;;;;10.93;6.93;;;18.90;99.90;;;;;;12435008;28;20054;-36
2021/06/07 14:04:05;;;;;;;8.70;6.15;;;18.80;99.90;;;;;;12425692;28;20130;-36
2021/06/07 14:10:07;;;;;;;;;;;18.70;99.90;;;;;;12430088;28;20085;-35
2021/06/07 14:16:10;;;;;;;9.60;7.03;;;18.60;99.90;;;;;;12438416;28;19935;-36
2021/06/07 14:28:14;;;;;;;8.25;6.72;;;18.50;99.90;;;;;;12444009;28;20049;-36
2021/06/07 14:34:17;;;;;;;7.75;6.53;;;18.50;99.90;;;;;;12441456;28;20038;-36
2021/06/07 14:40:19;;;;;;;8.23;6.97;;;18.60;99.90;;;;;;12444038;28;20057;-37
2021/06/07 14:46:21;;;;;;;9.85;7.35;;;18.70;99.90;;;;;;12446205;28;20111;-36
2021/06/07 14:52:24;;;;;;;8.57;7.30;;;18.90;99.90;;;;;;12432211;28;20049;-36
2021/06/07 14:58:26;;;;;;;10.48;7.75;;;18.90;99.90;;;;;;12442246;28;20888;-35
2021/06/07 15:04:28;;;;;;;8.38;7.15;;;18.90;99.90;;;;;;12398958;28;20050;-37
2021/06/07 15:10:30;;;;;;;13.88;9.20;;;18.80;99.90;;;;;;12395317;28;20125;-36
2021/06/07 15:16:32;;;;;;;10.43;9.32;;;18.80;99.90;;;;;;12440709;28;20045;-36
2021/06/07 15:22:34;;;;;;;10.18;8.75;;;18.90;99.90;;;;;;12414074;28;20042;-36
2021/06/07 15:28:36;;;;;;;9.32;8.32;;;18.80;99.90;;;;;;12386158;28;20049;-35
2021/06/07 15:34:38;;;;;;;12.35;9.75;;;18.80;99.90;;;;;;12387585;28;20042;-35
2021/06/07 15:40:40;;;;;;;11.95;10.30;;;18.80;99.90;;;;;;12381190;28;20413;-36
2021/06/07 15:46:43;;;;;;;12.13;8.88;;;18.70;99.90;;;;;;12392292;28;20049;-36
2021/06/07 15:52:46;;;;;;;11.20;9.52;;;18.70;99.90;;;;;;12387034;28;20072;-35
2021/06/07 15:58:49;;;;;;;14.05;9.13;;;18.60;99.90;;;;;;12385358;28;20042;-36
2021/06/07 16:04:51;;;;;;;11.93;9.90;;;18.60;99.90;;;;;;12385599;28;20484;-35
2021/06/07 16:10:53;;;;;;;17.27;10.90;;;18.40;99.90;;;;;;12383354;28;21110;-36
2021/06/07 16:16:56;;;;;;;13.38;9.98;;;18.30;99.90;;;;;;12390816;28;20049;-37
2021/06/07 16:22:58;;;;;;;13.68;8.73;;;18.30;99.90;;;;;;12389276;28;20058;-35
2021/06/07 16:29:01;;;;;;;12.93;9.57;;;18.20;99.90;;;;;;12381208;28;20054;-36
2021/06/07 16:35:03;;;;;;;11.63;9.18;;;18.20;99.90;;;;;;12381127;28;20053;-36
2021/06/07 16:41:05;;;;;;;14.52;9.68;;;18.00;99.90;;;;;;12384385;28;20501;-36
2021/06/07 16:47:07;;;;;;;13.90;10.27;;;18.00;99.90;;;;;;12385695;28;20049;-35
2021/06/07 16:53:09;;;;;;;12.00;10.48;;;18.00;99.90;;;;;;12372937;28;20108;-37
2021/06/07 16:59:11;;;;;;;13.90;9.68;;;17.90;99.90;;;;;;12384430;28;20091;-35
2021/06/07 17:05:13;;;;;;;11.15;9.23;;;18.00;99.90;;;;;;12367398;28;20050;-35
2021/06/07 17:11:15;;;;;;;11.73;9.68;;;17.90;99.90;;;;;;12376961;28;20104;-36
2021/06/07 17:17:22;;;;;;;11.35;9.27;;;17.80;99.90;;;;;;12378451;28;20185;-35
2021/06/07 17:23:24;;;;;;;12.32;9.80;;;17.80;99.90;;;;;;12379102;28;20058;-38
2021/06/07 17:29:26;;;;;;;15.00;9.52;;;17.70;99.90;;;;;;12378837;28;20065;-37
2021/06/07 17:35:29;;;;;;;9.90;8.38;;;17.70;99.90;;;;;;12372355;28;20038;-36
2021/06/07 17:41:32;;;;;;;14.10;10.45;;;17.70;99.90;;;;;;12363916;28;20052;-37
2021/06/07 17:47:34;;;;;;;10.52;9.35;;;17.70;99.90;;;;;;12370020;28;20073;-36
2021/06/07 17:53:36;;;;;;;14.75;12.07;;;17.80;99.90;;;;;;12361936;28;20057;-36
2021/06/07 17:59:38;;;;;;;15.60;12.10;;;17.80;99.90;;;;;;12364072;28;20053;-38
2021/06/07 18:05:40;;;;;;;17.38;13.80;;;17.80;99.90;;;;;;12364325;28;20072;-37
2021/06/07 18:11:42;;;;;;;13.38;11.50;;;17.80;99.90;;;;;;12370083;28;20073;-37
2021/06/07 18:17:45;;;;;;;14.63;11.60;;;17.70;99.90;;;;;;12372678;28;20173;-37
2021/06/07 18:23:47;;;;;;;17.63;11.37;;;17.70;99.90;;;;;;12372745;28;20085;-36
2021/06/07 18:29:49;;;;;;;13.48;11.27;;;17.70;99.90;;;;;;12374824;28;20624;-36
2021/06/07 18:35:51;;;;;;;16.38;11.88;;;17.60;99.90;;;;;;12371018;28;20057;-36
2021/06/07 18:41:53;;;;;;;15.55;11.93;;;17.50;99.90;;;;;;12379818;28;20863;-36
2021/06/07 18:47:55;;;;;;;15.50;12.95;;;17.50;99.90;;;;;;12375993;28;20061;-39
2021/06/07 18:53:57;;;;;;;15.90;12.85;;;17.40;99.90;;;;;;12370904;28;20054;-35
2021/06/07 18:59:59;;;;;;;18.50;12.65;;;17.40;99.90;;;;;;12373658;28;20625;-35
2021/06/07 19:06:02;;;;;;;13.55;12.00;;;17.40;99.90;;;;;;12382524;28;20497;-37
2021/06/07 19:12:05;;;;;;;15.77;11.30;;;17.40;99.90;;;;;;12377946;28;20050;-36
2021/06/07 19:18:07;;;;;;;13.73;11.68;;;17.40;99.90;;;;;;12385381;28;20082;-36
2021/06/07 19:24:09;;;;;;;14.98;11.70;;;17.30;99.90;;;;;;12380119;28;20054;-36
2021/06/07 19:30:11;;;;;;;14.82;12.07;;;17.30;99.90;;;;;;12382250;28;20073;-35
2021/06/07 19:36:13;;;;;;;15.68;11.38;;;17.30;99.90;;;;;;12386205;28;20054;-36
2021/06/07 19:42:15;;;;;;;15.38;12.05;;;17.20;99.90;;;;;;12373754;28;20048;-37
2021/06/07 19:48:17;;;;;;;15.70;12.15;;;17.10;99.90;;;;;;12383218;28;20161;-35
2021/06/07 19:54:19;;;;;;;13.20;11.65;;;17.20;99.90;;;;;;12385079;28;21543;-37
2021/06/07 20:00:20;;;;;;;16.77;12.48;;;17.10;99.90;;;;;;12384793;28;20589;-36
2021/06/07 20:06:26;;;;;;;18.02;11.50;;;17.00;99.90;;;;;;12366716;28;20061;-35
2021/06/07 20:12:28;;;;;;;16.98;11.93;;;17.00;99.90;;;;;;12380286;28;20050;-37
2021/06/07 20:18:31;;;;;;;12.65;11.25;;;17.00;99.90;;;;;;12382496;28;20050;-35
2021/06/07 20:24:32;;;;;;;14.32;11.95;;;16.90;99.90;;;;;;12376808;28;20141;-35
2021/06/07 20:30:34;;;;;;;14.18;11.75;;;16.80;99.90;;;;;;12379044;28;20466;-35
2021/06/07 20:36:36;;;;;;;16.35;12.25;;;16.70;99.90;;;;;;12373052;28;20053;-36
2021/06/07 20:42:38;;;;;;;17.88;12.18;;;16.70;99.90;;;;;;12377742;28;20474;-37
2021/06/07 20:48:40;;;;;;;15.70;11.82;;;16.50;99.90;;;;;;12380322;28;20490;-36
2021/06/07 20:54:42;;;;;;;15.60;11.73;;;16.30;99.90;;;;;;12378104;28;20473;-35
2021/06/07 21:00:44;;;;;;;19.30;12.55;;;16.30;99.90;;;;;;12379172;28;20486;-36
2021/06/07 21:06:46;;;;;;;18.40;13.60;;;16.10;99.90;;;;;;12373968;28;20512;-36
2021/06/07 21:12:48;;;;;;;17.33;14.07;;;15.90;99.90;;;;;;12377651;28;20134;-35
2021/06/07 21:18:50;;;;;;;20.30;13.25;;;15.80;99.90;;;;;;12375490;28;20048;-36
2021/06/07 21:24:53;;;;;;;13.52;12.13;;;15.80;99.90;;;;;;12369355;28;20455;-36
2021/06/07 21:30:58;;;;;;;18.40;12.82;;;15.90;99.90;;;;;;12377695;28;20093;-36
2021/06/07 21:37:02;;;;;;;12.55;10.52;;;15.90;99.90;;;;;;12376697;28;20721;-36
2021/06/07 21:43:04;;;;;;;16.65;12.98;;;15.90;99.90;;;;;;12366005;28;20107;-36
2021/06/07 21:49:06;;;;;;;18.77;12.93;;;15.60;99.90;;;;;;12379912;28;20049;-35
2021/06/07 21:55:09;;;;;;;17.27;12.45;;;15.50;99.90;;;;;;12375529;28;20143;-37
2021/06/07 22:01:10;;;;;;;23.05;11.25;;;15.50;99.90;;;;;;12378065;28;20112;-35
2021/06/07 22:07:13;;;;;;;14.20;11.90;;;15.50;99.90;;;;;;12382147;28;20073;-36
2021/06/07 22:13:14;;;;;;;14.73;12.35;;;15.40;99.90;;;;;;12371785;28;20054;-38
2021/06/07 22:19:16;;;;;;;16.52;13.23;;;15.50;99.90;;;;;;12378456;28;20051;-35
2021/06/07 22:25:19;;;;;;;14.50;12.10;;;15.40;99.90;;;;;;12367198;28;20093;-38
2021/06/07 22:31:21;;;;;;;15.95;13.23;;;15.50;99.90;;;;;;12378353;28;20053;-38
2021/06/07 22:37:23;;;;;;;17.55;13.25;;;15.40;99.90;;;;;;12383600;28;20058;-35
2021/06/07 22:43:25;;;;;;;17.20;15.00;;;15.50;99.90;;;;;;12385142;28;20053;-36
2021/06/07 22:49:27;;;;;;;22.50;15.38;;;15.30;99.90;;;;;;12387193;28;20114;-37
2021/06/07 22:55:29;;;;;;;17.27;14.45;;;15.00;99.90;;;;;;12378007;28;20054;-36
2021/06/07 23:01:31;;;;;;;16.00;12.63;;;15.00;99.90;;;;;;12382493;28;20479;-35
2021/06/07 23:07:33;;;;;;;17.05;13.18;;;15.00;99.90;;;;;;12374312;28;20058;-36
2021/06/07 23:13:35;;;;;;;14.35;11.50;;;15.10;99.90;;;;;;12383406;28;20082;-33
2021/06/07 23:19:37;;;;;;;13.27;10.70;;;15.20;99.90;;;;;;12384046;28;20113;-36
2021/06/07 23:25:39;;;;;;;11.50;8.63;;;15.40;99.90;;;;;;12388173;28;20045;-36
2021/06/07 23:31:41;;;;;;;11.85;9.85;;;15.50;99.90;;;;;;12382845;28;20140;-36
2021/06/07 23:37:43;;;;;;;17.92;10.35;;;15.40;99.90;;;;;;12382044;28;20046;-34
2021/06/07 23:43:46;;;;;;;13.55;10.68;;;15.50;99.90;;;;;;12380835;28;20050;-35
2021/06/07 23:49:47;;;;;;;13.35;9.98;;;15.60;99.90;;;;;;12382410;28;20054;-35
2021/06/07 23:55:49;;;;;;;13.68;9.43;;;15.60;99.90;;;;;;12381002;28;20999;-36
